Time;durP1;ratioP1;P1;durP2;ratioP2;P2;SDS_P1;SDS_P2;PMS_P1;PMS_P2;Temp;Humidity;BMP_temperature;BMP_pressure;BME280_temperature;BME280_humidity;BME280_pressure;Samples;Min_cycle;Max_cycle;Signal;HPM_P1;HPM_P2
2023/07/08 00:00:26;;;;;;;;;;;;;;;20.25;54.08;101626.41;5018954;28;1292;-82
2023/07/08 00:02:54;;;;;;;;;;;;;;;20.24;53.96;101623.91;5025159;28;1906;-82
2023/07/08 00:05:21;;;;;;;;;;;;;;;20.23;54.07;101617.84;5026497;28;1443;-82
2023/07/08 00:07:46;;;;;;;;;;;;;;;20.19;54.13;101618.38;5020165;28;1512;-82
2023/07/08 00:10:17;;;;;;;;;;;;;;;20.16;54.46;101616.88;5026703;28;1139;-82
2023/07/08 00:12:46;;;;;;;;;;;;;;;20.12;54.44;101600.56;5024532;28;1660;-82
2023/07/08 00:15:16;;;;;;;;;;;;;;;20.10;54.55;101607.84;5019009;28;1204;-82
2023/07/08 00:17:44;;;;;;;;;;;;;;;20.08;54.45;101609.81;5017464;28;1080;-82
2023/07/08 00:20:32;;;;;;;;;;;;;;;20.09;54.53;101605.38;5019407;28;1245;-82
2023/07/08 00:23:15;;;;;;;;;;;;;;;20.02;54.50;101604.41;5016510;28;1925;-82
2023/07/08 00:25:51;;;;;;;;;;;;;;;20.00;54.72;101599.28;5020204;28;1377;-82
2023/07/08 00:28:28;;;;;;;;;;;;;;;19.98;54.74;101598.66;5022346;28;1404;-82
2023/07/08 00:30:55;;;;;;;;;;;;;;;19.94;55.13;101607.03;5017796;28;1212;-82
2023/07/08 00:33:28;;;;;;;;;;;;;;;19.90;54.85;101601.31;5020143;28;1354;-82
2023/07/08 00:35:54;;;;;;;;;;;;;;;19.85;55.64;101593.09;5013364;28;1067;-82
2023/07/08 00:38:29;;;;;;;;;;;;;;;19.81;55.55;101591.78;5024316;28;1627;-82
2023/07/08 00:40:58;;;;;;;;;;;;;;;19.76;55.44;101592.25;5024711;28;1405;-82
2023/07/08 00:43:36;;;;;;;;;;;;;;;19.72;55.53;101584.88;5019846;28;1987;-83
2023/07/08 00:46:13;;;;;;;;;;;;;;;19.69;55.81;101582.56;5017714;28;1123;-82
2023/07/08 00:48:39;;;;;;;;;;;;;;;19.63;55.61;101577.00;5029542;28;1354;-82
2023/07/08 00:51:07;;;;;;;;;;;;;;;19.59;55.74;101583.56;5026711;28;1879;-82
2023/07/08 00:53:34;;;;;;;;;;;;;;;19.55;55.81;101582.22;5034617;28;1141;-82
2023/07/08 00:56:02;;;;;;;;;;;;;;;19.54;56.06;101585.84;5027430;28;1085;-82
2023/07/08 00:58:31;;;;;;;;;;;;;;;19.49;55.83;101577.59;5029550;28;1410;-82
2023/07/08 01:01:00;;;;;;;;;;;;;;;19.48;56.09;101585.69;5041580;28;1339;-82
2023/07/08 01:03:28;;;;;;;;;;;;;;;19.43;56.25;101583.53;5029483;28;1894;-82
2023/07/08 01:06:09;;;;;;;;;;;;;;;19.43;56.26;101583.53;5025924;28;1246;-83
2023/07/08 01:08:35;;;;;;;;;;;;;;;19.40;55.79;101581.25;5018332;28;1106;-83
2023/07/08 01:11:04;;;;;;;;;;;;;;;19.37;56.58;101584.19;5020548;28;1205;-83
2023/07/08 01:13:37;;;;;;;;;;;;;;;19.36;56.41;101582.56;5022700;28;1160;-83
2023/07/08 01:16:06;;;;;;;;;;;;;;;19.32;56.37;101573.34;5023597;28;1092;-83
2023/07/08 01:18:35;;;;;;;;;;;;;;;19.30;56.50;101575.31;5024013;28;1436;-83
2023/07/08 01:21:15;;;;;;;;;;;;;;;19.28;56.64;101574.66;5027691;28;1232;-84
2023/07/08 01:23:40;;;;;;;;;;;;;;;19.24;56.89;101578.59;5025731;28;1890;-83
2023/07/08 01:26:16;;;;;;;;;;;;;;;19.18;57.27;101576.63;5037303;28;1241;-83
2023/07/08 01:28:45;;;;;;;;;;;;;;;19.13;57.08;101576.28;5029285;28;1539;-83
2023/07/08 01:31:17;;;;;;;;;;;;;;;19.10;57.63;101575.66;5021344;28;1123;-83
2023/07/08 01:33:48;;;;;;;;;;;;;;;19.02;57.56;101565.09;5027718;28;1146;-84
2023/07/08 01:36:43;;;;;;;;;;;;;;;;;;;;;
2023/07/08 01:39:19;;;;;;;;;;;;;;;18.91;58.14;101575.91;5025473;28;1415;-83
2023/07/08 01:41:54;;;;;;;;;;;;;;;18.86;57.75;101570.31;5015556;28;1363;-84
2023/07/08 01:44:27;;;;;;;;;;;;;;;18.83;58.16;101563.59;5027594;28;1894;-83
2023/07/08 01:46:56;;;;;;;;;;;;;;;18.81;58.20;101568.19;5026190;28;1350;-83
2023/07/08 01:49:24;;;;;;;;;;;;;;;18.80;57.95;101565.72;5026951;28;1249;-83
2023/07/08 01:51:53;;;;;;;;;;;;;;;18.75;58.68;101558.34;5018412;28;1571;-83
2023/07/08 01:54:18;;;;;;;;;;;;;;;18.71;58.32;101554.38;5027012;28;1476;-83
2023/07/08 01:56:43;;;;;;;;;;;;;;;18.71;58.71;101566.69;5029323;28;1281;-83
2023/07/08 01:59:24;;;;;;;;;;;;;;;18.66;59.01;101558.44;5027682;28;1349;-83
2023/07/08 02:01:54;;;;;;;;;;;;;;;18.65;59.03;101551.53;5024317;28;1169;-83
2023/07/08 02:04:22;;;;;;;;;;;;;;;18.61;59.03;101545.78;5028405;28;1890;-84
2023/07/08 02:06:54;;;;;;;;;;;;;;;18.61;59.31;101544.94;5021056;28;1730;-83
2023/07/08 02:09:19;;;;;;;;;;;;;;;18.57;59.41;101545.25;5022773;28;1296;-83
2023/07/08 02:11:50;;;;;;;;;;;;;;;18.58;59.13;101536.41;5021493;28;1175;-82
2023/07/08 02:14:17;;;;;;;;;;;;;;;18.53;59.35;101533.44;5024334;28;1427;-83
2023/07/08 02:16:42;;;;;;;;;;;;;;;18.50;59.84;101528.50;5025187;28;980;-83
2023/07/08 02:19:12;;;;;;;;;;;;;;;18.46;60.08;101529.78;5019774;28;1373;-83
2023/07/08 02:21:40;;;;;;;;;;;;;;;18.45;60.43;101536.03;5023801;28;1173;-83
2023/07/08 02:24:06;;;;;;;;;;;;;;;18.41;59.91;101537.34;5024918;28;1894;-83
2023/07/08 02:26:32;;;;;;;;;;;;;;;18.37;60.08;101533.38;5014682;28;1169;-83
2023/07/08 02:28:59;;;;;;;;;;;;;;;18.34;60.34;101532.88;5023730;28;1111;-83
2023/07/08 02:31:28;;;;;;;;;;;;;;;18.30;60.47;101532.38;5026133;28;1610;-82
2023/07/08 02:33:54;;;;;;;;;;;;;;;18.27;60.38;101530.06;5020787;28;1307;-83
2023/07/08 02:36:19;;;;;;;;;;;;;;;18.25;60.44;101524.16;5018823;28;1740;-84
2023/07/08 02:38:47;;;;;;;;;;;;;;;18.21;60.71;101522.81;5025742;28;1093;-83
2023/07/08 02:41:15;;;;;;;;;;;;;;;18.16;60.87;101519.84;5021471;28;1186;-83
2023/07/08 02:43:40;;;;;;;;;;;;;;;18.14;61.52;101519.19;5022021;28;1926;-83
2023/07/08 02:46:15;;;;;;;;;;;;;;;;;;;;;
2023/07/08 02:48:41;;;;;;;;;;;;;;;18.10;61.21;101515.22;5028468;28;1176;-83
2023/07/08 02:51:11;;;;;;;;;;;;;;;18.08;60.89;101523.25;5027429;28;1107;-83
2023/07/08 02:53:45;;;;;;;;;;;;;;;18.04;61.47;101522.72;5027701;28;1560;-83
2023/07/08 02:56:34;;;;;;;;;;;;;;;18.02;61.55;101518.63;5024435;28;1103;-83
2023/07/08 02:58:58;;;;;;;;;;;;;;;18.01;61.13;101523.06;5018250;28;1019;-83
2023/07/08 03:01:26;;;;;;;;;;;;;;;18.01;61.50;101515.19;5026183;28;1414;-83
2023/07/08 03:04:00;;;;;;;;;;;;;;;17.99;61.20;101519.75;5023577;28;1898;-83
2023/07/08 03:06:30;;;;;;;;;;;;;;;17.98;61.54;101510.25;5023008;28;1243;-83
2023/07/08 03:08:58;;;;;;;;;;;;;;;17.96;61.60;101520.09;5022632;28;1194;-82
2023/07/08 03:11:28;;;;;;;;;;;;;;;17.93;61.77;101517.75;5020899;28;1286;-82
2023/07/08 03:13:55;;;;;;;;;;;;;;;17.89;61.61;101508.56;5018025;28;1174;-82
2023/07/08 03:16:23;;;;;;;;;;;;;;;17.83;62.36;101509.16;5023530;28;1244;-83
2023/07/08 03:19:01;;;;;;;;;;;;;;;17.80;61.89;101511.28;5023658;28;1310;-83
2023/07/08 03:21:28;;;;;;;;;;;;;;;17.74;62.10;101510.94;5024019;28;1393;-83
2023/07/08 03:23:56;;;;;;;;;;;;;;;17.72;62.54;101507.66;5023315;28;1897;-83
2023/07/08 03:26:23;;;;;;;;;;;;;;;17.72;62.28;101507.66;5025097;28;1034;-82
2023/07/08 03:28:48;;;;;;;;;;;;;;;17.70;62.41;101516.63;5025545;28;1160;-82
2023/07/08 03:31:17;;;;;;;;;;;;;;;17.69;62.57;101517.59;5024582;28;1273;-82
2023/07/08 03:33:52;;;;;;;;;;;;;;;17.65;63.32;101524.13;5024150;28;1145;-83
2023/07/08 03:36:26;;;;;;;;;;;;;;;17.61;63.40;101520.19;5026565;28;1321;-83
2023/07/08 03:38:55;;;;;;;;;;;;;;;17.59;62.99;101527.34;5014561;28;1238;-82
2023/07/08 03:41:23;;;;;;;;;;;;;;;17.56;63.43;101518.00;5036970;28;1378;-82
2023/07/08 03:44:19;;;;;;;;;;;;;;;;;;;;;
2023/07/08 03:46:52;;;;;;;;;;;;;;;17.52;64.24;101525.34;5019577;28;1395;-82
2023/07/08 03:49:23;;;;;;;;;;;;;;;17.48;63.78;101529.25;5019280;28;1294;-82
2023/07/08 03:51:49;;;;;;;;;;;;;;;17.46;64.10;101525.97;5020545;28;980;-83
2023/07/08 03:54:20;;;;;;;;;;;;;;;17.44;64.28;101520.06;5025035;28;1169;-83
2023/07/08 03:56:45;;;;;;;;;;;;;;;17.43;64.17;101531.53;5023464;28;1300;-82
2023/07/08 03:59:14;;;;;;;;;;;;;;;17.41;64.53;101541.34;5021449;28;1389;-83
2023/07/08 04:01:44;;;;;;;;;;;;;;;17.39;64.53;101530.19;5024253;28;1345;-83
2023/07/08 04:04:24;;;;;;;;;;;;;;;;;;;;;
2023/07/08 04:09:50;;;;;;;;;;;;;;;;;;;;;
2023/07/08 04:12:18;;;;;;;;;;;;;;;17.41;64.52;101525.59;5020481;28;917;-82
2023/07/08 04:15:02;;;;;;;;;;;;;;;17.42;64.52;101529.03;5026348;28;1562;-84
2023/07/08 04:17:41;;;;;;;;;;;;;;;17.41;64.83;101520.34;5017348;28;1326;-83
2023/07/08 04:20:20;;;;;;;;;;;;;;;;;;;;;
2023/07/08 04:22:48;;;;;;;;;;;;;;;17.39;65.02;101524.94;5021514;28;1922;-82
2023/07/08 04:25:19;;;;;;;;;;;;;;;17.39;65.49;101527.56;5029337;28;1633;-84
2023/07/08 04:27:47;;;;;;;;;;;;;;;17.36;64.92;101527.84;5029590;28;1320;-83
2023/07/08 04:30:40;;;;;;;;;;;;;;;17.36;65.73;101527.03;5024710;28;1419;-83
2023/07/08 04:33:15;;;;;;;;;;;;;;;17.35;64.77;101520.97;5019965;28;1296;-83
2023/07/08 04:35:41;;;;;;;;;;;;;;;17.36;65.69;101521.78;5025985;28;1413;-83
2023/07/08 04:38:16;;;;;;;;;;;;;;;17.38;65.17;101525.91;5026622;28;1169;-83
2023/07/08 04:40:47;;;;;;;;;;;;;;;17.39;66.51;101522.31;5032396;28;1321;-82
2023/07/08 04:43:29;;;;;;;;;;;;;;;17.40;66.14;101531.00;5017697;28;1895;-82
2023/07/08 04:46:15;;;;;;;;;;;;;;;17.42;66.32;101532.47;5020625;28;1297;-83
2023/07/08 04:48:45;;;;;;;;;;;;;;;17.46;66.49;101539.06;5024365;28;1305;-82
2023/07/08 04:51:10;;;;;;;;;;;;;;;17.47;65.39;101524.97;5020643;28;1395;-83
2023/07/08 04:53:36;;;;;;;;;;;;;;;17.48;65.96;101525.81;5022031;28;1253;-83
2023/07/08 04:56:11;;;;;;;;;;;;;;;;;;;;;
2023/07/08 04:58:49;;;;;;;;;;;;;;;17.47;67.05;101530.22;5021092;28;1314;-83
2023/07/08 05:01:20;;;;;;;;;;;;;;;17.48;67.45;101526.63;5018360;28;1255;-83
2023/07/08 05:03:54;;;;;;;;;;;;;;;17.48;67.24;101526.63;5022730;28;1997;-82
2023/07/08 05:06:21;;;;;;;;;;;;;;;17.49;67.46;101523.06;5023408;28;1387;-83
2023/07/08 05:08:59;;;;;;;;;;;;;;;;;;;;;
2023/07/08 05:11:39;;;;;;;;;;;;;;;17.50;67.61;101519.44;5027367;28;1229;-84
2023/07/08 05:14:32;;;;;;;;;;;;;;;;;;;;;
2023/07/08 05:16:58;;;;;;;;;;;;;;;17.60;67.91;101527.19;5016011;28;1548;-83
2023/07/08 05:19:26;;;;;;;;;;;;;;;17.64;67.45;101519.84;5017706;28;1248;-83
2023/07/08 05:22:01;;;;;;;;;;;;;;;17.68;67.38;101526.44;5027044;28;1226;-84
2023/07/08 05:24:26;;;;;;;;;;;;;;;17.71;67.57;101511.19;5035764;28;1902;-83
2023/07/08 05:26:54;;;;;;;;;;;;;;;17.75;68.05;101517.00;5026102;28;1127;-83
2023/07/08 05:29:25;;;;;;;;;;;;;;;17.80;67.87;101520.00;5027040;28;1413;-83
2023/07/08 05:31:57;;;;;;;;;;;;;;;17.81;67.55;101526.88;5023497;28;1356;-83
2023/07/08 05:34:32;;;;;;;;;;;;;;;17.86;68.42;101529.88;5028017;28;1278;-83
2023/07/08 05:36:57;;;;;;;;;;;;;;;17.89;68.17;101519.06;5033662;28;1080;-82
2023/07/08 05:39:22;;;;;;;;;;;;;;;17.95;68.31;101521.06;5024880;28;1415;-83
2023/07/08 05:41:48;;;;;;;;;;;;;;;18.00;68.11;101513.53;5024512;28;1157;-83
2023/07/08 05:44:13;;;;;;;;;;;;;;;18.04;67.81;101517.47;5034817;28;1914;-84
2023/07/08 05:46:38;;;;;;;;;;;;;;;18.12;67.76;101523.75;5023735;28;1479;-83
2023/07/08 05:49:04;;;;;;;;;;;;;;;18.20;68.60;101521.16;5028700;28;1417;-83
2023/07/08 05:51:29;;;;;;;;;;;;;;;18.25;67.90;101524.16;5028129;28;1482;-83
2023/07/08 05:53:54;;;;;;;;;;;;;;;18.30;67.50;101517.44;5021118;28;1315;-84
2023/07/08 05:56:19;;;;;;;;;;;;;;;18.37;67.82;101528.13;5032692;28;1080;-84
2023/07/08 05:58:45;;;;;;;;;;;;;;;18.46;66.90;101516.66;5030000;28;1346;-84
2023/07/08 06:01:12;;;;;;;;;;;;;;;18.47;67.49;101513.06;5026907;28;1144;-84
2023/07/08 06:03:37;;;;;;;;;;;;;;;18.51;67.49;101514.38;5025701;28;1965;-83
2023/07/08 06:06:05;;;;;;;;;;;;;;;18.60;67.26;101519.66;5029799;28;1056;-83
2023/07/08 06:08:33;;;;;;;;;;;;;;;18.66;66.97;101521.66;5026840;28;1263;-85
2023/07/08 06:10:58;;;;;;;;;;;;;;;18.73;66.96;101520.03;5019243;28;1821;-84
2023/07/08 06:13:24;;;;;;;;;;;;;;;18.78;66.90;101530.91;5024305;28;1339;-83
2023/07/08 06:15:49;;;;;;;;;;;;;;;18.84;68.17;101525.81;5024349;28;1224;-83
2023/07/08 06:18:14;;;;;;;;;;;;;;;18.92;67.07;101532.88;5025092;28;1419;-83
2023/07/08 06:20:39;;;;;;;;;;;;;;;18.98;67.79;101532.25;5018705;28;1151;-83
2023/07/08 06:23:04;;;;;;;;;;;;;;;19.03;66.96;101540.44;5024810;28;1976;-84
2023/07/08 06:25:31;;;;;;;;;;;;;;;19.11;66.53;101531.75;5025421;28;1177;-83
2023/07/08 06:27:56;;;;;;;;;;;;;;;19.18;66.57;101539.81;5020976;28;1333;-83
2023/07/08 06:30:22;;;;;;;;;;;;;;;19.23;66.88;101540.16;5027598;28;1291;-83
2023/07/08 06:32:47;;;;;;;;;;;;;;;19.31;66.81;101537.50;5024239;28;1205;-84
2023/07/08 06:35:12;;;;;;;;;;;;;;;19.38;66.45;101533.22;5027218;28;1247;-82
2023/07/08 06:37:37;;;;;;;;;;;;;;;19.46;66.32;101530.59;5019627;28;1143;-83
2023/07/08 06:40:03;;;;;;;;;;;;;;;19.54;66.59;101533.22;5024393;28;1193;-83
2023/07/08 06:42:29;;;;;;;;;;;;;;;19.61;66.47;101531.59;5021292;28;1350;-84
2023/07/08 06:44:54;;;;;;;;;;;;;;;19.71;66.32;101539.28;5024203;28;1014;-83
2023/07/08 06:47:20;;;;;;;;;;;;;;;19.81;66.26;101533.84;5032564;28;1749;-82
2023/07/08 06:49:48;;;;;;;;;;;;;;;19.91;65.96;101534.50;5022400;28;998;-84
2023/07/08 06:52:14;;;;;;;;;;;;;;;20.00;65.45;101544.00;5015507;28;1178;-83
2023/07/08 06:54:40;;;;;;;;;;;;;;;20.06;65.70;101530.16;5019575;28;1084;-84
2023/07/08 06:57:05;;;;;;;;;;;;;;;20.17;65.23;101542.94;5021386;28;1509;-83
2023/07/08 06:59:30;;;;;;;;;;;;;;;20.25;65.68;101536.03;5021998;28;1424;-83
2023/07/08 07:01:55;;;;;;;;;;;;;;;20.32;65.20;101532.53;5020900;28;1313;-83
2023/07/08 07:04:21;;;;;;;;;;;;;;;20.39;64.63;101532.66;5020733;28;1973;-84
2023/07/08 07:06:46;;;;;;;;;;;;;;;20.48;65.17;101531.66;5027744;28;1202;-83
2023/07/08 07:09:11;;;;;;;;;;;;;;;20.57;65.22;101530.59;5027170;28;1327;-83
2023/07/08 07:11:37;;;;;;;;;;;;;;;20.68;65.52;101532.84;5025202;28;1291;-84
2023/07/08 07:14:02;;;;;;;;;;;;;;;20.79;64.58;101528.19;5024522;28;1003;-84
2023/07/08 07:16:27;;;;;;;;;;;;;;;20.91;64.52;101532.88;5025972;28;1429;-84
2023/07/08 07:18:52;;;;;;;;;;;;;;;21.02;64.03;101529.00;5025076;28;1199;-84
2023/07/08 07:21:17;;;;;;;;;;;;;;;21.13;64.08;101528.59;5021344;28;1406;-84
2023/07/08 07:23:43;;;;;;;;;;;;;;;21.25;64.07;101522.88;5026682;28;1893;-83
2023/07/08 07:26:08;;;;;;;;;;;;;;;21.35;63.79;101528.78;5026408;28;1292;-83
2023/07/08 07:28:33;;;;;;;;;;;;;;;21.44;63.83;101519.75;5029080;28;1339;-83
2023/07/08 07:30:59;;;;;;;;;;;;;;;21.55;63.24;101519.31;5029039;28;1141;-83
2023/07/08 07:33:24;;;;;;;;;;;;;;;21.65;63.78;101519.88;5021870;28;1296;-83
2023/07/08 07:35:49;;;;;;;;;;;;;;;21.77;63.60;101517.63;5025869;28;1751;-83
2023/07/08 07:38:16;;;;;;;;;;;;;;;21.89;63.23;101518.78;5025730;28;1141;-84
2023/07/08 07:40:41;;;;;;;;;;;;;;;22.00;62.46;101513.06;5020881;28;989;-83
2023/07/08 07:43:06;;;;;;;;;;;;;;;22.13;62.52;101523.00;5038567;28;2247;-83
2023/07/08 07:45:31;;;;;;;;;;;;;;;22.23;62.26;101518.25;5013626;28;1327;-83
2023/07/08 07:47:57;;;;;;;;;;;;;;;22.38;60.36;101517.41;5026373;28;1114;-83
2023/07/08 07:50:22;;;;;;;;;;;;;;;22.51;58.01;101521.00;5025874;28;1322;-82
2023/07/08 07:52:47;;;;;;;;;;;;;;;22.65;56.50;101514.06;5022320;28;1020;-83
2023/07/08 07:55:12;;;;;;;;;;;;;;;22.79;56.62;101507.88;5019208;28;1230;-84
2023/07/08 07:57:38;;;;;;;;;;;;;;;22.91;56.04;101510.88;5013220;28;1321;-83
2023/07/08 08:00:03;;;;;;;;;;;;;;;23.04;55.27;101504.88;5023158;28;1104;-82
2023/07/08 08:02:28;;;;;;;;;;;;;;;23.10;54.84;101514.69;5016158;28;1010;-83
2023/07/08 08:04:53;;;;;;;;;;;;;;;23.16;54.74;101513.91;5025881;28;1890;-83
2023/07/08 08:07:19;;;;;;;;;;;;;;;23.24;54.39;101520.94;5024909;28;1155;-84
2023/07/08 08:09:44;;;;;;;;;;;;;;;23.29;54.45;101514.03;5026373;28;1135;-84
2023/07/08 08:12:10;;;;;;;;;;;;;;;23.37;53.87;101515.72;5027068;28;1099;-83
2023/07/08 08:14:36;;;;;;;;;;;;;;;23.44;53.52;101521.88;5025128;28;1444;-83
2023/07/08 08:17:02;;;;;;;;;;;;;;;23.53;53.27;101525.22;5021901;28;1209;-83
2023/07/08 08:19:27;;;;;;;;;;;;;;;23.67;53.67;101532.25;5023259;28;1024;-83
2023/07/08 08:21:52;;;;;;;;;;;;;;;23.87;53.36;101542.16;5016136;28;1428;-83
2023/07/08 08:24:17;;;;;;;;;;;;;;;24.00;52.64;101542.22;5019880;28;1898;-84
2023/07/08 08:26:42;;;;;;;;;;;;;;;24.18;53.02;101545.16;5022380;28;1182;-83
2023/07/08 08:29:08;;;;;;;;;;;;;;;24.26;50.60;101536.25;5020339;28;1141;-84
2023/07/08 08:31:33;;;;;;;;;;;;;;;24.34;52.18;101536.06;5022439;28;1620;-83
2023/07/08 08:33:58;;;;;;;;;;;;;;;24.39;52.28;101524.88;5022953;28;1241;-83
2023/07/08 08:36:23;;;;;;;;;;;;;;;24.49;52.58;101536.75;5025053;28;1601;-84
2023/07/08 08:38:49;;;;;;;;;;;;;;;24.60;52.21;101537.97;5023092;28;1253;-83
2023/07/08 08:41:16;;;;;;;;;;;;;;;24.78;52.12;101546.22;5018674;28;1094;-83
2023/07/08 08:43:43;;;;;;;;;;;;;;;24.86;51.23;101551.31;5020342;28;2036;-83
2023/07/08 08:46:27;;;;;;;;;;;;;;;24.91;51.31;101553.38;5022439;28;1298;-83
2023/07/08 08:48:58;;;;;;;;;;;;;;;25.03;51.17;101558.88;5019590;28;1008;-82
2023/07/08 08:51:25;;;;;;;;;;;;;;;25.15;51.07;101552.81;5020408;28;1382;-83
2023/07/08 08:53:52;;;;;;;;;;;;;;;25.30;50.33;101552.59;5019421;28;1400;-83
2023/07/08 08:56:20;;;;;;;;;;;;;;;25.34;48.15;101553.81;5015607;28;1453;-83
2023/07/08 08:58:51;;;;;;;;;;;;;;;25.40;50.11;101555.69;5025883;28;1196;-84
2023/07/08 09:01:16;;;;;;;;;;;;;;;25.55;50.30;101557.28;5018957;28;1160;-83
2023/07/08 09:03:53;;;;;;;;;;;;;;;25.64;50.65;101550.75;5020240;28;1981;-83
2023/07/08 09:06:22;;;;;;;;;;;;;;;25.78;50.92;101551.56;5016803;28;1173;-84
2023/07/08 09:08:48;;;;;;;;;;;;;;;25.94;50.31;101551.91;5025137;28;1303;-84
2023/07/08 09:11:32;;;;;;;;;;;;;;;25.98;49.46;101548.81;5024875;28;1465;-84
2023/07/08 09:13:57;;;;;;;;;;;;;;;26.01;49.93;101551.09;5025894;28;1301;-84
2023/07/08 09:16:41;;;;;;;;;;;;;;;26.06;50.14;101548.63;5021936;28;1092;-84
2023/07/08 09:19:06;;;;;;;;;;;;;;;26.14;49.12;101551.03;5029644;28;1090;-83
2023/07/08 09:21:50;;;;;;;;;;;;;;;26.16;49.63;101541.81;5023759;28;1225;-83
2023/07/08 09:24:19;;;;;;;;;;;;;;;26.23;49.38;101549.78;5020384;28;1955;-83
2023/07/08 09:26:46;;;;;;;;;;;;;;;26.31;48.30;101546.03;5020853;28;1298;-83
2023/07/08 09:29:11;;;;;;;;;;;;;;;26.36;48.90;101544.38;5027761;28;1006;-84
2023/07/08 09:31:38;;;;;;;;;;;;;;;26.38;48.97;101539.69;5022550;28;1332;-83
2023/07/08 09:34:14;;;;;;;;;;;;;;;26.45;48.45;101559.13;5026814;28;1366;-83
2023/07/08 09:36:46;;;;;;;;;;;;;;;26.53;48.68;101557.22;5019553;28;1256;-83
2023/07/08 09:39:12;;;;;;;;;;;;;;;26.62;49.11;101553.31;5021643;28;1570;-84
2023/07/08 09:41:38;;;;;;;;;;;;;;;26.74;48.39;101551.59;5021590;28;916;-83
2023/07/08 09:44:04;;;;;;;;;;;;;;;26.83;48.49;101555.59;5027865;28;2215;-84
2023/07/08 09:46:34;;;;;;;;;;;;;;;26.99;48.02;101554.28;5025064;28;1398;-83
2023/07/08 09:49:08;;;;;;;;;;;;;;;27.09;48.09;101553.81;5028144;28;1384;-83
2023/07/08 09:51:34;;;;;;;;;;;;;;;27.20;47.84;101558.44;5022420;28;1180;-82
2023/07/08 09:53:59;;;;;;;;;;;;;;;27.26;46.63;101554.91;5015666;28;1644;-83
2023/07/08 09:56:27;;;;;;;;;;;;;;;27.39;47.19;101554.78;5027786;28;1099;-84
2023/07/08 09:58:52;;;;;;;;;;;;;;;27.53;46.66;101555.50;5017600;28;1066;-83
2023/07/08 10:01:25;;;;;;;;;;;;;;;27.61;46.23;101551.72;5029556;28;1271;-83
2023/07/08 10:03:50;;;;;;;;;;;;;;;27.75;46.71;101558.56;5028215;28;1898;-83
2023/07/08 10:06:25;;;;;;;;;;;;;;;27.84;46.43;101557.25;5029629;28;1161;-84
2023/07/08 10:08:53;;;;;;;;;;;;;;;27.89;46.66;101553.91;5020648;28;1091;-83
2023/07/08 10:11:33;;;;;;;;;;;;;;;27.94;47.10;101546.88;5018732;28;1400;-83
2023/07/08 10:14:17;;;;;;;;;;;;;;;28.03;46.39;101561.53;5027714;28;1122;-84
2023/07/08 10:16:42;;;;;;;;;;;;;;;28.15;47.32;101552.78;5027167;28;1322;-84
2023/07/08 10:19:17;;;;;;;;;;;;;;;28.25;46.74;101553.88;5023407;28;1278;-84
2023/07/08 10:22:02;;;;;;;;;;;;;;;28.34;46.22;101551.75;5019930;28;1343;-84
2023/07/08 10:24:50;;;;;;;;;;;;;;;28.39;46.08;101541.22;5023783;28;1973;-83
2023/07/08 10:27:38;;;;;;;;;;;;;;;28.45;45.99;101532.31;5008685;28;1138;-83
2023/07/08 10:30:06;;;;;;;;;;;;;;;28.55;44.21;101539.75;5020504;28;1241;-84
2023/07/08 10:32:36;;;;;;;;;;;;;;;28.54;45.55;101533.59;5026153;28;1351;-84
2023/07/08 10:35:01;;;;;;;;;;;;;;;28.55;44.53;101532.56;5021588;28;1787;-83
2023/07/08 10:37:33;;;;;;;;;;;;;;;28.73;45.95;101538.88;5026049;28;1404;-84
2023/07/08 10:40:07;;;;;;;;;;;;;;;28.90;44.96;101541.69;5021937;28;1316;-84
2023/07/08 10:42:42;;;;;;;;;;;;;;;28.87;44.63;101529.63;5023625;28;1258;-83
2023/07/08 10:45:20;;;;;;;;;;;;;;;28.92;42.91;101532.44;5024681;28;1241;-84
2023/07/08 10:47:55;;;;;;;;;;;;;;;28.99;43.89;101529.69;5036852;28;1220;-84
2023/07/08 10:50:40;;;;;;;;;;;;;;;29.07;42.43;101516.78;5023146;28;1488;-84
2023/07/08 10:53:20;;;;;;;;;;;;;;;29.19;42.03;101526.66;5015074;28;1236;-85
2023/07/08 10:55:50;;;;;;;;;;;;;;;29.31;40.80;101530.19;5023187;28;1296;-84
2023/07/08 10:58:15;;;;;;;;;;;;;;;29.50;42.93;101530.88;5018086;28;1396;-84
2023/07/08 11:00:56;;;;;;;;;;;;;;;29.57;42.37;101529.72;5023339;28;1158;-84
2023/07/08 11:03:25;;;;;;;;;;;;;;;29.71;41.15;101534.84;5024195;28;1914;-84
2023/07/08 11:05:56;;;;;;;;;;;;;;;29.79;42.25;101531.78;5018026;28;1090;-83
2023/07/08 11:08:30;;;;;;;;;;;;;;;29.90;40.62;101530.94;5026121;28;1333;-84
2023/07/08 11:10:55;;;;;;;;;;;;;;;30.02;40.22;101531.72;5020966;28;1149;-83
2023/07/08 11:13:22;;;;;;;;;;;;;;;30.11;39.94;101533.00;5021291;28;1469;-84
2023/07/08 11:16:00;;;;;;;;;;;;;;;30.15;40.32;101520.75;5021413;28;1182;-83
2023/07/08 11:18:44;;;;;;;;;;;;;;;30.20;37.68;101527.25;5017273;28;1428;-84
2023/07/08 11:21:13;;;;;;;;;;;;;;;30.28;39.51;101529.53;5023885;28;1457;-84
2023/07/08 11:23:50;;;;;;;;;;;;;;;30.48;38.77;101529.94;5014880;28;1890;-84
2023/07/08 11:26:15;;;;;;;;;;;;;;;30.44;37.49;101528.78;5027866;28;1216;-83
2023/07/08 11:28:41;;;;;;;;;;;;;;;30.59;37.25;101529.06;5019206;28;1361;-83
2023/07/08 11:31:06;;;;;;;;;;;;;;;30.72;36.05;101535.19;5021829;28;1542;-84
2023/07/08 11:33:33;;;;;;;;;;;;;;;30.84;37.41;101527.88;5023492;28;1303;-84
2023/07/08 11:36:00;;;;;;;;;;;;;;;30.83;36.75;101527.06;5026238;28;1311;-84
2023/07/08 11:38:25;;;;;;;;;;;;;;;30.80;35.24;101526.78;5025270;28;1161;-84
2023/07/08 11:41:01;;;;;;;;;;;;;;;30.80;35.03;101521.41;5024147;28;1146;-83
2023/07/08 11:43:36;;;;;;;;;;;;;;;30.91;34.76;101523.16;5026163;28;1934;-82
2023/07/08 11:46:04;;;;;;;;;;;;;;;31.03;35.15;101521.25;5025925;28;1149;-84
2023/07/08 11:48:31;;;;;;;;;;;;;;;31.16;35.30;101520.09;5022304;28;1284;-84
2023/07/08 11:50:57;;;;;;;;;;;;;;;31.27;33.99;101527.25;5026847;28;1342;-85
2023/07/08 11:53:28;;;;;;;;;;;;;;;31.24;32.40;101522.34;5028008;28;1342;-84
2023/07/08 11:55:58;;;;;;;;;;;;;;;31.19;33.86;101516.91;5026004;28;1480;-84
2023/07/08 11:58:28;;;;;;;;;;;;;;;31.20;33.96;101522.03;5024525;28;1578;-85
2023/07/08 12:01:21;;;;;;;;;;;;;;;31.25;35.72;101517.81;5020896;28;1487;-85
2023/07/08 12:03:48;;;;;;;;;;;;;;;31.36;35.99;101515.03;5025315;28;1957;-84
2023/07/08 12:06:25;;;;;;;;;;;;;;;31.47;35.45;101516.00;5018590;28;1091;-85
2023/07/08 12:08:52;;;;;;;;;;;;;;;31.51;32.31;101517.13;5021961;28;1051;-85
2023/07/08 12:11:17;;;;;;;;;;;;;;;31.52;33.75;101509.88;5019895;28;1130;-84
2023/07/08 12:13:42;;;;;;;;;;;;;;;31.57;33.79;101504.59;5023368;28;1139;-86
2023/07/08 12:16:10;;;;;;;;;;;;;;;31.65;33.60;101510.31;5018372;28;1524;-85
2023/07/08 12:18:38;;;;;;;;;;;;;;;31.76;33.48;101515.81;5018396;28;1164;-85
2023/07/08 12:21:04;;;;;;;;;;;;;;;31.72;33.29;101502.94;5019948;28;1041;-86
2023/07/08 12:23:30;;;;;;;;;;;;;;;31.80;33.57;101500.88;5023985;28;1890;-84
2023/07/08 12:25:56;;;;;;;;;;;;;;;31.88;33.33;101506.59;5023218;28;1143;-84
2023/07/08 12:28:22;;;;;;;;;;;;;;;31.97;31.50;101499.75;5021207;28;1048;-84
2023/07/08 12:30:48;;;;;;;;;;;;;;;31.92;30.76;101496.19;5018233;28;1335;-85
2023/07/08 12:33:28;;;;;;;;;;;;;;;31.89;32.64;101502.06;5024840;28;1242;-85
2023/07/08 12:35:55;;;;;;;;;;;;;;;31.95;32.05;101496.50;5024083;28;1313;-85
2023/07/08 12:38:27;;;;;;;;;;;;;;;32.02;32.96;101496.31;5028258;28;1298;-85
2023/07/08 12:40:52;;;;;;;;;;;;;;;32.04;31.60;101494.19;5022571;28;1193;-85
2023/07/08 12:43:18;;;;;;;;;;;;;;;32.11;33.89;101493.97;5024186;28;1889;-86
2023/07/08 12:45:43;;;;;;;;;;;;;;;32.15;32.22;101493.22;5029274;28;1319;-85
2023/07/08 12:48:09;;;;;;;;;;;;;;;32.09;31.95;101485.38;5029887;28;1744;-85
2023/07/08 12:50:34;;;;;;;;;;;;;;;32.05;32.70;101487.75;5026329;28;1546;-85
2023/07/08 12:53:03;;;;;;;;;;;;;;;32.02;32.25;101490.94;5026051;28;1572;-86
2023/07/08 12:55:28;;;;;;;;;;;;;;;32.03;32.55;101481.03;5023521;28;1514;-85
2023/07/08 12:57:54;;;;;;;;;;;;;;;32.08;33.26;101484.56;5023254;28;1484;-85
2023/07/08 13:00:28;;;;;;;;;;;;;;;32.16;33.45;101486.78;5021306;28;1260;-84
2023/07/08 13:03:08;;;;;;;;;;;;;;;32.35;33.54;101483.78;5024495;28;1993;-85
2023/07/08 13:05:33;;;;;;;;;;;;;;;32.44;32.56;101483.06;5025767;28;1322;-84
2023/07/08 13:07:59;;;;;;;;;;;;;;;32.42;33.30;101473.66;5026339;28;1502;-85
2023/07/08 13:10:25;;;;;;;;;;;;;;;32.44;31.47;101476.88;5023735;28;1185;-85
2023/07/08 13:12:53;;;;;;;;;;;;;;;32.36;31.88;101471.97;5021215;28;1421;-85